Time;durP1;ratioP1;P1;durP2;ratioP2;P2;SDS_P1;SDS_P2;PMS_P1;PMS_P2;Temp;Humidity;BMP_temperature;BMP_pressure;BME280_temperature;BME280_humidity;BME280_pressure;Samples;Min_cycle;Max_cycle;Signal;HPM_P1;HPM_P2
2022/08/27 00:01:07;;;;;;;9.70;2.27;;;19.30;99.90;;;;;;5094442;28;21037;-81
2022/08/27 00:03:34;;;;;;;4.87;1.70;;;19.30;99.90;;;;;;5094843;28;20539;-82
2022/08/27 00:06:01;;;;;;;6.73;1.80;;;19.40;99.90;;;;;;5094805;28;20448;-81
2022/08/27 00:08:28;;;;;;;2.73;1.80;;;19.30;99.90;;;;;;5094761;28;20443;-81
2022/08/27 00:10:54;;;;;;;6.23;3.20;;;19.40;99.90;;;;;;5094705;28;20440;-81
2022/08/27 00:13:23;;;;;;;3.27;1.67;;;19.40;99.90;;;;;;5094341;28;20812;-81
2022/08/27 00:15:49;;;;;;;3.77;2.70;;;19.40;99.90;;;;;;5094643;28;20440;-81
2022/08/27 00:18:16;;;;;;;3.27;2.13;;;19.40;99.90;;;;;;5094589;28;20455;-81
2022/08/27 00:20:43;;;;;;;4.33;1.50;;;19.40;99.90;;;;;;5093702;28;20464;-81
2022/08/27 00:23:10;;;;;;;1.53;1.30;;;19.40;99.90;;;;;;5094091;28;20975;-81
2022/08/27 00:25:37;;;;;;;3.50;2.00;;;19.40;99.90;;;;;;5094133;28;20472;-81
2022/08/27 00:28:04;;;;;;;4.73;1.90;;;19.40;99.90;;;;;;5094388;28;20448;-81
2022/08/27 00:30:32;;;;;;;2.57;1.90;;;19.40;99.90;;;;;;5094069;28;20436;-81
2022/08/27 00:32:59;;;;;;;2.10;1.67;;;19.40;99.90;;;;;;5094286;28;20464;-81
2022/08/27 00:35:26;;;;;;;4.47;2.90;;;19.30;99.90;;;;;;5094293;28;20451;-81
2022/08/27 00:37:53;;;;;;;3.27;1.60;;;19.30;99.90;;;;;;5093909;28;20859;-81
2022/08/27 00:40:22;;;;;;;5.67;1.60;;;19.30;99.90;;;;;;5094110;28;20486;-81
2022/08/27 00:42:49;;;;;;;5.40;2.13;;;19.40;99.90;;;;;;5093808;28;20479;-81
2022/08/27 00:45:18;;;;;;;4.57;2.30;;;19.40;99.90;;;;;;5094097;28;20531;-81
2022/08/27 00:47:49;;;;;;;3.87;1.93;;;19.30;99.90;;;;;;5094032;28;20452;-81
2022/08/27 00:50:24;;;;;;;3.40;2.50;;;19.30;99.90;;;;;;5094051;28;20440;-81
2022/08/27 00:52:54;;;;;;;5.13;2.00;;;19.30;99.90;;;;;;5093620;28;21001;-81
2022/08/27 00:55:24;;;;;;;3.87;1.87;;;19.30;99.90;;;;;;5093955;28;20444;-81
2022/08/27 00:57:56;;;;;;;4.37;2.80;;;19.30;99.90;;;;;;5093930;28;20451;-81
2022/08/27 01:00:23;;;;;;;3.90;2.00;;;19.30;99.90;;;;;;5093811;28;20468;-81
2022/08/27 01:02:51;;;;;;;3.30;2.83;;;19.30;99.90;;;;;;5093771;28;20467;-81
2022/08/27 01:05:21;;;;;;;2.83;2.23;;;19.30;99.90;;;;;;5093805;28;20446;-81
2022/08/27 01:07:51;;;;;;;6.33;3.50;;;19.40;99.90;;;;;;5093729;28;20480;-81
2022/08/27 01:10:21;;;;;;;8.40;3.30;;;19.40;99.90;;;;;;5093447;28;20443;-81
2022/08/27 01:12:51;;;;;;;2.57;2.20;;;19.30;99.90;;;;;;5093683;28;20468;-81
2022/08/27 01:15:18;;;;;;;2.13;1.63;;;19.30;99.90;;;;;;5093611;28;20454;-81
2022/08/27 01:17:46;;;;;;;3.07;2.77;;;19.30;99.90;;;;;;5093620;28;20452;-81
2022/08/27 01:20:20;;;;;;;7.47;2.70;;;19.40;99.90;;;;;;5093526;28;20519;-81
2022/08/27 01:22:55;;;;;;;9.40;2.83;;;19.40;99.90;;;;;;5093518;28;20475;-81
2022/08/27 01:25:25;;;;;;;3.17;2.17;;;19.40;99.90;;;;;;5093280;28;20479;-81
2022/08/27 01:27:55;;;;;;;4.63;1.90;;;19.40;99.90;;;;;;5093509;28;20444;-81
2022/08/27 01:30:22;;;;;;;4.93;2.37;;;19.40;99.90;;;;;;5093192;28;20436;-81
2022/08/27 01:32:49;;;;;;;2.90;1.80;;;19.40;99.90;;;;;;5097128;28;20508;-81
2022/08/27 01:35:18;;;;;;;4.40;2.70;;;19.40;99.90;;;;;;5100216;28;20451;-81
2022/08/27 01:37:48;;;;;;;5.80;2.80;;;19.40;99.90;;;;;;5100148;28;20456;-81
2022/08/27 01:40:15;;;;;;;5.50;2.60;;;19.40;99.90;;;;;;5100358;28;20535;-81
2022/08/27 01:42:46;;;;;;;4.53;2.67;;;19.40;99.90;;;;;;5100083;28;20478;-81
2022/08/27 01:45:15;;;;;;;4.70;2.57;;;19.30;99.90;;;;;;5100177;28;20427;-81
2022/08/27 01:47:42;;;;;;;10.63;2.80;;;19.40;99.90;;;;;;5100114;28;20478;-81
2022/08/27 01:50:14;;;;;;;4.00;1.63;;;19.40;99.90;;;;;;5099724;28;20818;-81
2022/08/27 01:52:41;;;;;;;3.73;1.93;;;19.30;99.90;;;;;;5099691;28;21005;-81
2022/08/27 01:55:10;;;;;;;5.90;3.00;;;19.30;99.90;;;;;;5100013;28;20818;-81
2022/08/27 01:57:38;;;;;;;9.40;3.10;;;19.30;99.90;;;;;;5099984;28;20477;-80
2022/08/27 02:00:10;;;;;;;6.67;2.80;;;19.30;99.90;;;;;;5099651;28;20512;-79
2022/08/27 02:02:37;;;;;;;4.93;2.87;;;19.20;99.90;;;;;;5099864;28;20455;-79
2022/08/27 02:05:04;;;;;;;5.70;2.43;;;19.10;99.90;;;;;;5099627;28;20837;-79
2022/08/27 02:07:31;;;;;;;10.20;3.00;;;18.90;99.90;;;;;;5099951;28;20446;-79
2022/08/27 02:09:58;;;;;;;8.27;3.43;;;18.80;99.90;;;;;;5099842;28;20447;-79
2022/08/27 02:12:24;;;;;;;3.80;2.20;;;18.70;99.90;;;;;;5099861;28;20459;-80
2022/08/27 02:14:51;;;;;;;4.93;2.37;;;18.70;99.90;;;;;;5100183;28;20439;-80
2022/08/27 02:17:19;;;;;;;4.53;2.10;;;18.60;99.90;;;;;;5099559;28;20997;-80
2022/08/27 02:19:46;;;;;;;6.97;2.40;;;18.60;99.90;;;;;;5099501;28;20833;-80
2022/08/27 02:22:13;;;;;;;4.33;2.30;;;18.50;99.90;;;;;;5099334;28;20849;-80
2022/08/27 02:24:40;;;;;;;8.63;3.47;;;18.50;99.90;;;;;;5099627;28;20446;-80
2022/08/27 02:27:08;;;;;;;6.03;2.27;;;18.50;99.90;;;;;;5099979;28;20440;-80
2022/08/27 02:29:35;;;;;;;5.10;1.60;;;18.50;99.90;;;;;;5099948;28;20442;-80
2022/08/27 02:32:02;;;;;;;4.10;1.87;;;18.40;99.90;;;;;;5100121;28;20459;-80
2022/08/27 02:34:30;;;;;;;4.50;1.63;;;18.40;99.90;;;;;;5100389;28;20436;-79
2022/08/27 02:36:57;;;;;;;1.83;1.20;;;18.40;99.90;;;;;;5099787;28;20957;-80
2022/08/27 02:39:24;;;;;;;5.30;2.23;;;18.40;99.90;;;;;;5099611;28;20458;-80
2022/08/27 02:41:50;;;;;;;5.90;1.97;;;18.30;99.90;;;;;;5099451;28;21017;-80
2022/08/27 02:44:17;;;;;;;3.73;1.70;;;18.30;99.90;;;;;;5097234;28;20466;-80
2022/08/27 02:46:44;;;;;;;2.40;1.60;;;18.30;99.90;;;;;;5096405;28;20448;-80
2022/08/27 02:49:11;;;;;;;2.90;1.67;;;18.20;99.90;;;;;;5096355;28;20443;-80
2022/08/27 02:51:39;;;;;;;4.53;2.70;;;18.20;99.90;;;;;;5096232;28;20575;-80
2022/08/27 02:54:06;;;;;;;2.83;1.73;;;18.20;99.90;;;;;;5095935;28;20942;-80
2022/08/27 02:56:33;;;;;;;3.37;2.20;;;18.20;99.90;;;;;;5096229;28;20812;-81
2022/08/27 02:59:00;;;;;;;8.77;3.10;;;18.20;99.90;;;;;;5096195;28;20451;-81
2022/08/27 03:01:27;;;;;;;2.37;2.17;;;18.20;99.90;;;;;;5095943;28;20480;-80
2022/08/27 03:03:54;;;;;;;2.93;1.63;;;18.20;99.90;;;;;;5096036;28;20452;-81
2022/08/27 03:06:21;;;;;;;4.00;1.67;;;18.20;99.90;;;;;;5095698;28;20955;-80
2022/08/27 03:08:49;;;;;;;1.57;1.17;;;18.30;99.90;;;;;;5095938;28;20448;-80
2022/08/27 03:11:15;;;;;;;3.13;2.20;;;18.20;99.90;;;;;;5095564;28;20468;-80
2022/08/27 03:13:42;;;;;;;4.70;2.13;;;18.20;99.90;;;;;;5095883;28;20451;-82
2022/08/27 03:16:09;;;;;;;3.73;1.90;;;18.20;99.90;;;;;;5095817;28;20444;-81
2022/08/27 03:18:35;;;;;;;3.53;2.20;;;18.10;99.90;;;;;;5095482;28;20974;-81
2022/08/27 03:21:02;;;;;;;4.17;2.70;;;18.10;99.90;;;;;;5095610;28;20468;-81
2022/08/27 03:23:32;;;;;;;4.53;2.33;;;18.10;99.90;;;;;;5095647;28;20267;-81
2022/08/27 03:26:03;;;;;;;7.60;2.20;;;18.10;99.90;;;;;;5095313;28;20480;-81
2022/08/27 03:28:32;;;;;;;4.60;2.57;;;18.10;99.90;;;;;;5095627;28;20451;-81
2022/08/27 03:31:01;;;;;;;3.40;1.80;;;18.10;99.90;;;;;;5095439;28;20455;-81
2022/08/27 03:33:29;;;;;;;3.60;2.10;;;18.10;99.90;;;;;;5095182;28;20444;-81
2022/08/27 03:35:55;;;;;;;7.53;2.13;;;18.10;99.90;;;;;;5095441;28;20443;-81
2022/08/27 03:38:23;;;;;;;2.63;2.03;;;18.10;99.90;;;;;;5095396;28;20444;-81
2022/08/27 03:40:50;;;;;;;4.20;2.23;;;18.00;99.90;;;;;;5095223;28;20458;-81
2022/08/27 03:43:20;;;;;;;4.70;3.17;;;18.00;99.90;;;;;;5095217;28;20472;-81
2022/08/27 03:45:47;;;;;;;12.47;4.27;;;18.00;99.90;;;;;;5095930;28;20436;-80
2022/08/27 03:48:15;;;;;;;8.40;3.90;;;17.90;99.90;;;;;;5095197;28;20452;-80
2022/08/27 03:50:45;;;;;;;5.30;2.73;;;17.90;99.90;;;;;;5095154;28;20436;-80
2022/08/27 03:53:13;;;;;;;6.93;3.27;;;17.80;99.90;;;;;;5095037;28;20460;-80
2022/08/27 03:55:41;;;;;;;3.50;2.57;;;17.80;99.90;;;;;;5093899;28;20444;-80
2022/08/27 03:58:08;;;;;;;9.07;3.80;;;17.70;99.90;;;;;;5094978;28;20452;-80
2022/08/27 04:00:36;;;;;;;10.87;4.67;;;17.70;99.90;;;;;;5094639;28;20989;-80
2022/08/27 04:03:04;;;;;;;10.63;5.70;;;17.60;99.90;;;;;;5094513;28;20484;-79
2022/08/27 04:05:30;;;;;;;15.63;5.73;;;17.70;99.90;;;;;;5094840;28;20495;-79
2022/08/27 04:07:57;;;;;;;11.30;5.50;;;17.70;99.90;;;;;;5094808;28;20448;-79
2022/08/27 04:10:24;;;;;;;14.20;5.70;;;17.70;99.90;;;;;;5094508;28;20467;-79
2022/08/27 04:12:51;;;;;;;6.63;4.30;;;17.70;99.90;;;;;;5094667;28;20483;-79
2022/08/27 04:15:18;;;;;;;14.43;6.70;;;17.70;99.90;;;;;;5094699;28;20444;-79
2022/08/27 04:17:46;;;;;;;12.67;6.40;;;17.80;99.90;;;;;;5094359;28;20444;-79
2022/08/27 04:20:13;;;;;;;12.37;5.20;;;17.80;99.90;;;;;;5094652;28;20444;-79
2022/08/27 04:22:39;;;;;;;12.50;5.90;;;17.80;99.90;;;;;;5094468;28;20853;-79
2022/08/27 04:25:07;;;;;;;8.77;5.40;;;17.80;99.90;;;;;;5094262;28;20483;-79
2022/08/27 04:27:34;;;;;;;12.03;5.93;;;17.80;99.90;;;;;;5094456;28;20436;-79
2022/08/27 04:30:02;;;;;;;10.97;6.13;;;17.70;99.90;;;;;;5094387;28;20452;-79
2022/08/27 04:32:29;;;;;;;21.60;6.93;;;17.70;99.90;;;;;;5094305;28;20459;-79
2022/08/27 04:34:59;;;;;;;9.83;5.90;;;17.80;99.90;;;;;;5094333;28;20447;-79
2022/08/27 04:37:30;;;;;;;12.23;6.43;;;17.80;99.90;;;;;;5094341;28;20428;-79
2022/08/27 04:39:57;;;;;;;14.10;6.53;;;17.80;99.90;;;;;;5093959;28;20970;-79
2022/08/27 04:42:24;;;;;;;11.70;5.57;;;17.80;99.90;;;;;;5094082;28;20484;-79
2022/08/27 04:44:52;;;;;;;15.57;7.00;;;17.80;99.90;;;;;;5094102;28;20444;-79
2022/08/27 04:47:19;;;;;;;11.60;5.93;;;17.80;99.90;;;;;;5093815;28;20952;-79
2022/08/27 04:49:46;;;;;;;16.13;7.07;;;17.90;99.90;;;;;;5094087;28;20448;-79
2022/08/27 04:52:14;;;;;;;14.10;6.67;;;17.90;99.90;;;;;;5093657;28;21001;-79
2022/08/27 04:54:41;;;;;;;10.03;5.63;;;17.90;99.90;;;;;;5093980;28;20471;-79
2022/08/27 04:57:08;;;;;;;14.27;6.20;;;17.90;99.90;;;;;;5093965;28;20444;-79
2022/08/27 04:59:37;;;;;;;11.33;5.10;;;17.90;99.90;;;;;;5093569;28;20789;-79
2022/08/27 05:02:04;;;;;;;12.33;5.30;;;17.90;99.90;;;;;;5093691;28;20486;-79
2022/08/27 05:04:32;;;;;;;12.37;5.47;;;18.00;99.90;;;;;;5093530;28;20820;-79
2022/08/27 05:07:00;;;;;;;13.87;4.97;;;17.90;99.90;;;;;;5093122;28;20942;-80
2022/08/27 05:09:28;;;;;;;11.17;4.93;;;18.00;99.90;;;;;;5093739;28;20455;-80
2022/08/27 05:11:55;;;;;;;7.97;4.57;;;17.90;99.90;;;;;;5093664;28;20451;-80
2022/08/27 05:14:22;;;;;;;16.90;7.17;;;17.90;99.90;;;;;;5093649;28;20444;-79
2022/08/27 05:16:50;;;;;;;10.60;4.57;;;17.90;99.90;;;;;;5093353;28;20970;-79
2022/08/27 05:19:17;;;;;;;10.70;5.10;;;17.90;99.90;;;;;;5093622;28;20493;-79
2022/08/27 05:21:46;;;;;;;9.63;4.50;;;17.90;99.90;;;;;;5093449;28;20479;-79
2022/08/27 05:24:13;;;;;;;5.97;4.17;;;18.00;99.90;;;;;;5093554;28;20525;-79
2022/08/27 05:26:42;;;;;;;16.23;6.00;;;18.00;99.90;;;;;;5093173;28;20480;-79
2022/08/27 05:29:09;;;;;;;10.00;5.60;;;18.00;99.90;;;;;;5093194;28;20966;-79
2022/08/27 05:31:36;;;;;;;10.93;4.60;;;18.00;99.90;;;;;;5093163;28;20796;-79
2022/08/27 05:34:04;;;;;;;6.80;4.10;;;18.10;99.90;;;;;;5093497;28;20449;-79
2022/08/27 05:36:33;;;;;;;18.53;4.93;;;18.10;99.90;;;;;;5093127;28;21003;-79
2022/08/27 05:39:01;;;;;;;11.73;5.20;;;18.20;99.90;;;;;;5093391;28;20487;-79
2022/08/27 05:41:30;;;;;;;20.23;5.90;;;18.10;99.90;;;;;;5093254;28;20460;-79
2022/08/27 05:44:03;;;;;;;13.23;5.80;;;18.20;99.90;;;;;;5093379;28;20475;-79
2022/08/27 05:46:30;;;;;;;13.80;5.07;;;18.30;99.90;;;;;;5093062;28;21011;-79
2022/08/27 05:48:58;;;;;;;12.63;5.23;;;18.30;99.90;;;;;;5093348;28;20816;-79
2022/08/27 05:51:29;;;;;;;17.13;6.53;;;18.30;99.90;;;;;;5093262;28;20463;-79
2022/08/27 05:53:58;;;;;;;11.90;5.60;;;18.40;99.90;;;;;;5093327;28;20424;-79
2022/08/27 05:56:27;;;;;;;9.63;5.70;;;18.40;99.90;;;;;;5093282;28;20448;-79
2022/08/27 06:01:43;;;;;;;9.10;4.73;;;18.40;99.90;;;;;;5092858;28;20439;-79
2022/08/27 06:04:11;;;;;;;11.40;4.40;;;18.50;99.90;;;;;;5093202;28;20440;-79
2022/08/27 06:06:40;;;;;;;16.37;5.97;;;18.50;99.90;;;;;;5093174;28;20455;-79
2022/08/27 06:09:09;;;;;;;10.30;5.23;;;18.50;99.90;;;;;;5092843;28;20943;-79
2022/08/27 06:11:36;;;;;;;8.33;4.40;;;18.60;99.90;;;;;;5093051;28;20468;-79
2022/08/27 06:14:03;;;;;;;9.10;4.90;;;18.60;99.90;;;;;;5092788;28;20447;-79
2022/08/27 06:16:29;;;;;;;10.63;5.27;;;18.60;99.90;;;;;;5092881;28;20444;-79
2022/08/27 06:18:58;;;;;;;10.50;4.77;;;18.70;99.90;;;;;;5093678;28;20455;-79
2022/08/27 06:21:25;;;;;;;21.67;4.97;;;18.70;99.90;;;;;;5096829;28;20552;-79
2022/08/27 06:23:53;;;;;;;14.10;5.07;;;18.70;99.90;;;;;;5097499;28;20544;-79
2022/08/27 06:26:21;;;;;;;12.50;4.43;;;18.80;99.90;;;;;;5096430;28;20844;-79
2022/08/27 06:28:49;;;;;;;7.40;4.23;;;18.80;99.90;;;;;;5096748;28;20450;-79
2022/08/27 06:31:18;;;;;;;7.50;4.97;;;18.70;99.90;;;;;;5096621;28;20468;-79
2022/08/27 06:33:45;;;;;;;10.13;4.57;;;18.80;99.90;;;;;;5096671;28;20444;-79
2022/08/27 06:36:15;;;;;;;6.23;3.97;;;18.80;99.90;;;;;;5096301;28;20448;-79
2022/08/27 06:38:42;;;;;;;11.73;4.33;;;18.80;99.90;;;;;;5096543;28;20444;-79
2022/08/27 06:41:11;;;;;;;12.43;4.87;;;18.80;99.90;;;;;;5096467;28;20478;-79
2022/08/27 06:43:40;;;;;;;7.97;4.43;;;18.70;99.90;;;;;;5096398;28;20482;-79
2022/08/27 06:46:09;;;;;;;11.40;4.30;;;18.70;99.90;;;;;;5096511;28;20478;-79
2022/08/27 06:48:36;;;;;;;5.33;2.90;;;18.80;99.90;;;;;;5096280;28;20447;-79
2022/08/27 06:51:08;;;;;;;10.37;3.90;;;18.80;99.90;;;;;;5096273;28;20442;-79
2022/08/27 06:53:36;;;;;;;11.53;4.83;;;18.80;99.90;;;;;;5096370;28;20453;-79
2022/08/27 06:56:04;;;;;;;7.27;4.00;;;18.80;99.90;;;;;;5096233;28;20450;-79
2022/08/27 06:58:30;;;;;;;11.00;4.43;;;18.80;99.90;;;;;;5096381;28;20444;-79
2022/08/27 07:00:57;;;;;;;6.90;3.77;;;18.80;99.90;;;;;;5096067;28;20443;-79
2022/08/27 07:03:24;;;;;;;3.37;2.40;;;18.80;99.90;;;;;;5096026;28;20507;-79
2022/08/27 07:05:51;;;;;;;8.70;3.23;;;18.90;99.90;;;;;;5096096;28;20436;-79
2022/08/27 07:08:18;;;;;;;7.43;2.73;;;18.80;99.90;;;;;;5096109;28;20448;-79
2022/08/27 07:10:46;;;;;;;11.10;4.33;;;18.80;99.90;;;;;;5096008;28;20433;-79
2022/08/27 07:13:12;;;;;;;7.57;4.20;;;18.90;99.90;;;;;;5095840;28;20460;-79
2022/08/27 07:15:40;;;;;;;7.57;3.37;;;18.90;99.90;;;;;;5095536;28;20947;-79
2022/08/27 07:18:07;;;;;;;14.00;3.30;;;18.90;99.90;;;;;;5095829;28;20444;-79
2022/08/27 07:20:34;;;;;;;8.63;3.80;;;19.00;99.90;;;;;;5095853;28;20432;-79
2022/08/27 07:23:00;;;;;;;8.03;3.03;;;18.90;99.90;;;;;;5095269;28;20484;-79
2022/08/27 07:25:27;;;;;;;4.20;2.33;;;19.00;99.90;;;;;;5095360;28;20476;-79
2022/08/27 07:27:55;;;;;;;6.27;3.40;;;19.00;99.90;;;;;;5095287;28;20803;-79
2022/08/27 07:30:22;;;;;;;5.70;3.63;;;19.00;99.90;;;;;;5094940;28;20463;-79
2022/08/27 07:32:49;;;;;;;5.80;4.33;;;19.10;99.90;;;;;;5095439;28;20460;-79
2022/08/27 07:35:15;;;;;;;9.67;3.70;;;19.10;99.90;;;;;;5095489;28;20475;-79
2022/08/27 07:37:42;;;;;;;7.63;3.83;;;19.20;99.90;;;;;;5095123;28;20451;-79
2022/08/27 07:40:12;;;;;;;7.83;3.53;;;19.20;99.90;;;;;;5095359;28;20501;-79
2022/08/27 07:45:25;;;;;;;8.00;2.67;;;19.30;99.90;;;;;;5095244;28;20530;-79
2022/08/27 07:47:52;;;;;;;7.33;3.77;;;19.40;99.90;;;;;;5094914;28;20894;-79
2022/08/27 07:50:21;;;;;;;10.13;3.33;;;19.40;99.90;;;;;;5095164;28;20452;-79
2022/08/27 07:52:48;;;;;;;6.90;4.30;;;19.40;99.90;;;;;;5095072;28;20464;-79
2022/08/27 07:55:16;;;;;;;7.63;3.37;;;19.50;99.90;;;;;;5095088;28;20455;-78
2022/08/27 07:57:43;;;;;;;10.10;3.83;;;19.50;99.90;;;;;;5094576;28;21019;-78
2022/08/27 08:00:11;;;;;;;7.33;4.53;;;19.50;99.90;;;;;;5094647;28;20491;-79
2022/08/27 08:02:40;;;;;;;8.67;3.73;;;19.40;99.90;;;;;;5094798;28;20491;-79
2022/08/27 08:05:08;;;;;;;11.87;5.20;;;19.40;99.90;;;;;;5094921;28;20436;-79
2022/08/27 08:07:37;;;;;;;9.23;2.80;;;19.40;99.90;;;;;;5094545;28;20983;-79
2022/08/27 08:10:05;;;;;;;9.10;3.70;;;19.40;99.90;;;;;;5094816;28;20455;-79
2022/08/27 08:12:31;;;;;;;9.47;4.80;;;19.40;99.90;;;;;;5094684;28;20475;-79
2022/08/27 08:14:58;;;;;;;5.10;3.70;;;19.50;99.90;;;;;;5094713;28;20444;-79
2022/08/27 08:17:25;;;;;;;6.27;3.63;;;19.40;99.90;;;;;;5094324;28;20820;-79
2022/08/27 08:19:53;;;;;;;5.80;4.23;;;19.40;99.90;;;;;;5094612;28;20530;-79
2022/08/27 08:22:20;;;;;;;6.73;3.50;;;19.40;99.90;;;;;;5094398;28;20460;-79
2022/08/27 08:24:47;;;;;;;7.37;3.47;;;19.40;99.90;;;;;;5094427;28;20448;-77
2022/08/27 08:27:13;;;;;;;14.80;3.60;;;19.40;99.90;;;;;;5094516;28;20435;-76
2022/08/27 08:29:41;;;;;;;7.23;3.77;;;19.40;99.90;;;;;;5094419;28;20450;-77
2022/08/27 08:32:08;;;;;;;10.47;4.23;;;19.50;99.90;;;;;;5094310;28;20460;-77
2022/08/27 08:34:35;;;;;;;8.67;4.47;;;19.50;99.90;;;;;;5094374;28;20440;-77
2022/08/27 08:37:04;;;;;;;8.70;5.00;;;19.50;99.90;;;;;;5094294;28;20440;-78
2022/08/27 08:39:31;;;;;;;9.47;5.00;;;19.50;99.90;;;;;;5094227;28;20444;-78
2022/08/27 08:42:00;;;;;;;10.80;4.37;;;19.60;99.90;;;;;;5093505;28;20464;-77
2022/08/27 08:44:31;;;;;;;8.00;3.87;;;19.60;99.90;;;;;;5094133;28;20475;-77
2022/08/27 08:47:03;;;;;;;8.17;3.60;;;19.60;99.90;;;;;;5094157;28;20441;-77
2022/08/27 08:49:38;;;;;;;7.33;3.83;;;19.50;99.90;;;;;;5094082;28;20489;-77
2022/08/27 08:52:19;;;;;;;8.67;4.10;;;19.50;99.90;;;;;;5094009;28;20472;-77
2022/08/27 08:54:46;;;;;;;10.53;4.20;;;19.50;99.90;;;;;;5094027;28;20450;-77
2022/08/27 08:57:20;;;;;;;6.83;3.83;;;19.60;99.90;;;;;;5093603;28;20451;-77
2022/08/27 08:59:56;;;;;;;11.67;5.53;;;19.60;99.90;;;;;;5094036;28;20481;-77
2022/08/27 09:02:23;;;;;;;6.57;3.43;;;19.60;99.90;;;;;;5093770;28;20525;-78
2022/08/27 09:04:50;;;;;;;10.97;4.20;;;19.60;99.90;;;;;;5093537;28;21020;-78
2022/08/27 09:07:27;;;;;;;12.83;3.97;;;19.60;99.90;;;;;;5093822;28;20443;-78
2022/08/27 09:10:00;;;;;;;9.53;3.93;;;19.60;99.90;;;;;;5093779;28;20432;-78
2022/08/27 09:12:29;;;;;;;7.10;3.00;;;19.60;99.90;;;;;;5093416;28;20849;-77
2022/08/27 09:15:00;;;;;;;13.17;5.03;;;19.60;99.90;;;;;;5093647;28;20444;-78
2022/08/27 09:17:27;;;;;;;11.80;4.37;;;19.70;99.90;;;;;;5093723;28;20474;-77
2022/08/27 09:19:54;;;;;;;6.97;3.20;;;19.80;99.90;;;;;;5093323;28;20963;-77
2022/08/27 09:22:30;;;;;;;9.30;5.07;;;19.90;99.90;;;;;;5093537;28;20460;-77
2022/08/27 09:25:07;;;;;;;7.30;3.17;;;20.00;99.90;;;;;;5093354;28;20475;-78
2022/08/27 09:27:36;;;;;;;12.27;3.97;;;20.00;99.90;;;;;;5093248;28;20446;-78
2022/08/27 09:30:08;;;;;;;6.73;4.50;;;20.00;99.90;;;;;;5093184;28;20943;-82
2022/08/27 09:32:35;;;;;;;7.63;3.27;;;20.00;99.90;;;;;;5093449;28;20551;-77
2022/08/27 09:35:06;;;;;;;9.67;3.80;;;20.00;99.90;;;;;;5093460;28;20440;-77
2022/08/27 09:37:41;;;;;;;4.30;2.90;;;19.90;99.90;;;;;;5093472;28;20503;-77
2022/08/27 09:40:16;;;;;;;9.87;4.10;;;19.90;99.90;;;;;;5093469;28;20439;-77
2022/08/27 09:42:46;;;;;;;9.50;3.27;;;19.90;99.90;;;;;;5093276;28;20463;-77
2022/08/27 09:45:16;;;;;;;7.10;3.87;;;19.90;99.90;;;;;;5093117;28;20481;-77
2022/08/27 09:47:45;;;;;;;6.30;2.80;;;19.90;99.90;;;;;;5093336;28;20448;-77
2022/08/27 09:50:13;;;;;;;9.40;3.63;;;19.90;99.90;;;;;;5093340;28;20448;-77
2022/08/27 09:52:50;;;;;;;7.97;4.00;;;20.00;99.90;;;;;;5093410;28;20521;-77
2022/08/27 09:55:27;;;;;;;7.43;2.90;;;20.00;99.90;;;;;;5097462;28;20431;-77
2022/08/27 09:57:54;;;;;;;7.23;2.53;;;20.00;99.90;;;;;;5097375;28;20424;-77
2022/08/27 10:00:32;;;;;;;8.67;3.53;;;20.00;99.90;;;;;;5096916;28;20838;-77
2022/08/27 10:03:01;;;;;;;6.40;3.60;;;19.90;99.90;;;;;;5096904;28;21226;-77
2022/08/27 10:05:31;;;;;;;4.57;2.90;;;19.90;99.90;;;;;;5091708;28;20545;-77
2022/08/27 10:08:02;;;;;;;6.43;3.87;;;19.90;99.90;;;;;;5096177;28;20440;-77
2022/08/27 10:10:39;;;;;;;5.63;3.47;;;19.90;99.90;;;;;;5096489;28;20526;-77
2022/08/27 10:13:10;;;;;;;5.00;2.37;;;19.90;99.90;;;;;;5096557;28;20463;-77
2022/08/27 10:15:43;;;;;;;5.20;3.43;;;19.90;99.90;;;;;;5097004;28;20435;-77
2022/08/27 10:18:14;;;;;;;9.87;4.17;;;19.90;99.90;;;;;;5097043;28;20428;-77
2022/08/27 10:20:51;;;;;;;9.00;3.40;;;19.90;99.90;;;;;;5096976;28;20432;-75
2022/08/27 10:23:26;;;;;;;7.77;3.30;;;19.90;99.90;;;;;;5096759;28;20556;-74
2022/08/27 10:26:04;;;;;;;6.10;3.17;;;19.90;99.90;;;;;;5096508;28;20480;-75
2022/08/27 10:28:43;;;;;;;11.13;4.93;;;19.90;99.90;;;;;;5096822;28;20442;-75
2022/08/27 10:31:18;;;;;;;8.10;3.33;;;19.90;99.90;;;;;;5096400;28;20928;-75
2022/08/27 10:33:56;;;;;;;9.57;4.40;;;19.80;99.90;;;;;;5096720;28;20424;-75
2022/08/27 10:36:36;;;;;;;4.60;3.10;;;19.70;99.90;;;;;;5096340;28;20991;-74
2022/08/27 10:39:12;;;;;;;5.80;2.47;;;19.70;99.90;;;;;;5096247;28;20435;-74
2022/08/27 10:41:43;;;;;;;5.90;2.90;;;19.60;99.90;;;;;;5096170;28;20974;-75
2022/08/27 10:44:24;;;;;;;6.70;2.13;;;19.40;99.90;;;;;;5096422;28;20478;-75
2022/08/27 10:47:04;;;;;;;5.73;3.27;;;19.20;99.90;;;;;;5096503;28;20569;-75
2022/08/27 10:49:39;;;;;;;5.23;2.40;;;19.20;99.90;;;;;;5096120;28;20477;-75
2022/08/27 10:52:15;;;;;;;5.93;3.67;;;19.20;99.90;;;;;;5096032;28;20970;-75
2022/08/27 10:54:49;;;;;;;3.10;2.13;;;19.10;99.90;;;;;;5096318;28;20949;-75
2022/08/27 10:57:22;;;;;;;2.00;1.80;;;19.10;99.90;;;;;;5096320;28;20420;-75
2022/08/27 10:59:56;;;;;;;2.00;1.13;;;19.20;99.90;;;;;;5096715;28;20458;-75
2022/08/27 11:02:32;;;;;;;2.80;1.77;;;19.10;99.90;;;;;;5096110;28;20463;-75
2022/08/27 11:05:02;;;;;;;5.30;2.10;;;19.10;99.90;;;;;;5095370;28;20467;-75
2022/08/27 11:07:33;;;;;;;5.20;1.80;;;19.10;99.90;;;;;;5096071;28;20432;-75
2022/08/27 11:10:03;;;;;;;2.00;1.13;;;19.10;99.90;;;;;;5095722;28;21012;-75
2022/08/27 11:12:35;;;;;;;3.00;1.20;;;19.00;99.90;;;;;;5095945;28;20460;-75
2022/08/27 11:15:10;;;;;;;3.60;1.80;;;19.00;99.90;;;;;;5095595;28;20904;-75
2022/08/27 11:17:41;;;;;;;5.70;1.67;;;19.00;99.90;;;;;;5095901;28;20435;-75
2022/08/27 11:20:13;;;;;;;9.93;2.00;;;19.00;99.90;;;;;;5095570;28;20973;-75
2022/08/27 11:22:48;;;;;;;5.30;2.63;;;19.00;99.90;;;;;;5095825;28;20491;-75
2022/08/27 11:25:38;;;;;;;3.03;1.53;;;19.00;99.90;;;;;;5095337;28;21014;-75
2022/08/27 11:28:07;;;;;;;8.90;2.97;;;19.10;99.90;;;;;;5095408;28;20896;-75
2022/08/27 11:30:41;;;;;;;3.33;2.70;;;19.00;99.90;;;;;;5095615;28;20451;-75
2022/08/27 11:33:16;;;;;;;4.57;2.47;;;18.90;99.90;;;;;;5095556;28;20473;-75
2022/08/27 11:36:01;;;;;;;5.27;1.93;;;18.80;99.90;;;;;;5095538;28;20519;-75
2022/08/27 11:38:44;;;;;;;3.87;2.80;;;18.80;99.90;;;;;;5095467;28;20435;-75
2022/08/27 11:41:28;;;;;;;4.13;2.17;;;18.80;99.90;;;;;;5095373;28;20539;-75
2022/08/27 11:43:57;;;;;;;8.23;2.20;;;18.80;99.90;;;;;;5095041;28;20817;-75
2022/08/27 11:46:27;;;;;;;5.33;2.87;;;18.80;99.90;;;;;;5094984;28;20451;-75
2022/08/27 11:48:58;;;;;;;8.10;2.70;;;18.90;99.90;;;;;;5095265;28;20447;-75
2022/08/27 11:51:33;;;;;;;4.80;2.97;;;18.90;99.90;;;;;;5095165;28;20830;-75
2022/08/27 11:54:05;;;;;;;5.60;2.00;;;19.00;99.90;;;;;;5095208;28;20485;-75
2022/08/27 11:56:40;;;;;;;2.70;2.20;;;19.00;99.90;;;;;;5094830;28;20428;-75
2022/08/27 11:59:20;;;;;;;6.33;2.50;;;19.00;99.90;;;;;;5095083;28;20531;-75
2022/08/27 12:01:48;;;;;;;2.87;1.60;;;19.10;99.90;;;;;;5094687;28;20463;-75
2022/08/27 12:04:32;;;;;;;3.73;2.43;;;19.10;99.90;;;;;;5094848;28;20540;-76
2022/08/27 12:07:03;;;;;;;5.23;2.40;;;19.10;99.90;;;;;;5094691;28;20433;-75
2022/08/27 12:09:47;;;;;;;4.50;2.10;;;19.10;99.90;;;;;;5094529;28;20810;-75
2022/08/27 12:12:21;;;;;;;3.63;1.97;;;19.20;99.90;;;;;;5094780;28;20468;-76
2022/08/27 12:14:54;;;;;;;4.03;1.80;;;19.40;99.90;;;;;;5094767;28;20425;-75
2022/08/27 12:17:29;;;;;;;4.50;2.20;;;19.50;99.90;;;;;;5094234;28;20424;-75
2022/08/27 12:20:09;;;;;;;2.63;1.50;;;19.50;99.90;;;;;;5094674;28;20428;-76
2022/08/27 12:25:56;;;;;;;4.43;2.17;;;19.40;99.90;;;;;;5094203;28;21067;-75
2022/08/27 12:28:25;;;;;;;2.47;2.20;;;19.50;99.90;;;;;;5094214;28;20896;-75
2022/08/27 12:30:53;;;;;;;5.40;2.30;;;19.60;99.90;;;;;;5094414;28;20451;-75
2022/08/27 12:33:31;;;;;;;4.63;1.87;;;19.60;99.90;;;;;;5094312;28;20466;-75
2022/08/27 12:36:06;;;;;;;3.23;2.20;;;19.50;99.90;;;;;;5094436;28;20497;-75
2022/08/27 12:38:43;;;;;;;3.80;1.50;;;19.40;99.90;;;;;;5094319;28;20522;-74
2022/08/27 12:41:10;;;;;;;4.17;2.67;;;19.40;99.90;;;;;;5094224;28;20428;-75
2022/08/27 12:43:42;;;;;;;2.83;2.63;;;19.30;99.90;;;;;;5093830;28;20812;-75
2022/08/27 12:46:14;;;;;;;4.30;2.20;;;19.30;99.90;;;;;;5094189;28;20485;-75
2022/08/27 12:48:44;;;;;;;7.67;2.53;;;19.30;99.90;;;;;;5093891;28;20443;-75
2022/08/27 12:51:16;;;;;;;3.77;1.97;;;19.30;99.90;;;;;;5094778;28;20462;-75
2022/08/27 12:53:44;;;;;;;6.83;3.23;;;19.40;99.90;;;;;;5094088;28;20428;-75
2022/08/27 12:56:32;;;;;;;7.07;3.10;;;19.40;99.90;;;;;;5093984;28;20810;-80
2022/08/27 12:59:12;;;;;;;8.80;2.87;;;19.50;99.90;;;;;;5094013;28;20424;-74
2022/08/27 13:01:53;;;;;;;11.20;3.57;;;19.60;99.90;;;;;;5094011;28;20467;-76
2022/08/27 13:04:22;;;;;;;5.60;2.23;;;19.70;99.90;;;;;;5093543;28;20463;-78
2022/08/27 13:06:50;;;;;;;2.70;2.10;;;19.80;99.90;;;;;;5093842;28;20471;-76